createdAt,value
2022-09-28T00:00:03.857Z,8.19
2022-09-28T00:01:03.980Z,8.19
2022-09-28T00:02:03.998Z,8.19
2022-09-28T00:03:04.109Z,8.19
2022-09-28T00:04:04.064Z,8.12
2022-09-28T00:05:04.158Z,8.12
2022-09-28T00:06:04.306Z,8.12
2022-09-28T00:07:04.387Z,8.12
2022-09-28T00:08:04.385Z,8.12
2022-09-28T00:09:04.477Z,8.06
2022-09-28T00:10:04.739Z,8.06
2022-09-28T00:11:03.912Z,8.06
2022-09-28T00:12:03.911Z,8.06
2022-09-28T00:13:03.905Z,8.00
2022-09-28T00:14:04.066Z,8.00
2022-09-28T00:15:04.233Z,8.00
2022-09-28T00:16:04.314Z,8.00
2022-09-28T00:17:04.230Z,8.00
2022-09-28T00:18:04.330Z,8.00
2022-09-28T00:19:04.399Z,7.94
2022-09-28T00:20:04.316Z,7.94
2022-09-28T00:21:04.386Z,7.94
2022-09-28T00:22:04.415Z,7.94
2022-09-28T00:23:04.471Z,7.94
2022-09-28T00:24:04.468Z,7.88
2022-09-28T00:25:03.586Z,7.88
2022-09-28T00:26:03.596Z,7.88
2022-09-28T00:27:03.586Z,7.81
2022-09-28T00:28:03.495Z,7.88
2022-09-28T00:29:03.596Z,7.81
2022-09-28T00:30:03.593Z,7.81
2022-09-28T00:31:03.636Z,7.81
2022-09-28T00:32:03.531Z,7.81
2022-09-28T00:33:03.501Z,7.81
2022-09-28T00:34:03.518Z,7.75
2022-09-28T00:35:04.486Z,7.75
2022-09-28T00:36:03.510Z,7.75
2022-09-28T00:37:03.508Z,7.69
2022-09-28T00:38:03.665Z,7.69
2022-09-28T00:39:03.668Z,7.69
2022-09-28T00:40:04.391Z,7.69
2022-09-28T00:41:03.502Z,7.69
2022-09-28T00:42:03.593Z,7.69
2022-09-28T00:43:03.416Z,7.62
2022-09-28T00:44:03.527Z,7.62
2022-09-28T00:45:03.601Z,7.62
2022-09-28T00:46:03.597Z,7.62
2022-09-28T00:47:03.510Z,7.62
2022-09-28T00:48:04.468Z,7.56
2022-09-28T00:49:03.498Z,7.56
2022-09-28T00:50:03.518Z,7.56
2022-09-28T00:51:03.589Z,7.50
2022-09-28T00:52:03.672Z,7.50
2022-09-28T00:53:03.725Z,7.56
2022-09-28T00:54:03.816Z,7.50
2022-09-28T00:55:03.900Z,7.50
2022-09-28T00:56:03.979Z,7.44
2022-09-28T00:57:03.988Z,7.44
2022-09-28T00:58:03.982Z,7.44
2022-09-28T00:59:04.092Z,7.38
2022-09-28T01:00:03.988Z,7.38
2022-09-28T01:01:04.142Z,7.31
2022-09-28T01:02:04.158Z,7.31
2022-09-28T01:03:03.987Z,7.31
2022-09-28T01:04:04.138Z,7.31
2022-09-28T01:05:03.981Z,7.31
2022-09-28T01:06:03.983Z,7.25
2022-09-28T01:07:03.987Z,7.25
2022-09-28T01:08:04.069Z,7.25
2022-09-28T01:09:04.074Z,7.25
2022-09-28T01:10:04.203Z,7.19
2022-09-28T01:11:03.577Z,7.25
2022-09-28T01:12:03.596Z,7.19
2022-09-28T01:13:03.589Z,7.19
2022-09-28T01:14:03.590Z,7.19
2022-09-28T01:15:03.599Z,7.19
2022-09-28T01:16:03.744Z,7.12
2022-09-28T01:17:03.835Z,7.19
2022-09-28T01:18:03.830Z,7.12
2022-09-28T01:19:03.832Z,7.12
2022-09-28T01:20:03.831Z,7.12
2022-09-28T01:21:04.081Z,7.12
2022-09-28T01:22:04.066Z,7.12
2022-09-28T01:23:04.144Z,7.12
2022-09-28T01:24:04.062Z,7.12
2022-09-28T01:25:04.082Z,7.12
2022-09-28T01:26:04.226Z,7.12
2022-09-28T01:27:04.385Z,7.06
2022-09-28T01:28:03.497Z,7.06
2022-09-28T01:29:03.502Z,7.06
2022-09-28T01:30:03.510Z,7.06
2022-09-28T01:31:03.665Z,7.06
2022-09-28T01:32:03.917Z,7.06
2022-09-28T01:33:03.888Z,7.06
2022-09-28T01:34:03.832Z,7.00
2022-09-28T01:35:03.826Z,7.00
2022-09-28T01:36:03.990Z,7.00
2022-09-28T01:37:03.925Z,7.00
2022-09-28T01:38:03.908Z,7.00
2022-09-28T01:39:04.059Z,7.00
2022-09-28T01:40:04.245Z,7.00
2022-09-28T01:41:04.219Z,7.00
2022-09-28T01:42:04.230Z,7.00
2022-09-28T01:43:04.229Z,7.00
2022-09-28T01:44:04.301Z,7.00
2022-09-28T01:45:04.313Z,6.94
2022-09-28T01:46:04.460Z,6.94
2022-09-28T01:47:04.320Z,7.00
2022-09-28T01:48:04.297Z,7.00
2022-09-28T01:49:04.304Z,7.00
2022-09-28T01:50:04.336Z,7.06
2022-09-28T01:51:04.400Z,7.06
2022-09-28T01:52:04.395Z,7.06
2022-09-28T01:53:04.389Z,7.06
2022-09-28T01:54:04.374Z,7.06
2022-09-28T01:55:04.401Z,7.06
2022-09-28T01:56:04.376Z,7.06
2022-09-28T01:57:04.476Z,7.06
2022-09-28T01:58:04.459Z,7.06
2022-09-28T01:59:03.600Z,7.06
2022-09-28T02:00:03.499Z,7.06
2022-09-28T02:01:03.720Z,7.06
2022-09-28T02:02:03.631Z,7.06
2022-09-28T02:03:03.587Z,7.00
2022-09-28T02:04:03.748Z,7.06
2022-09-28T02:05:03.826Z,7.06
2022-09-28T02:06:04.228Z,7.06
2022-09-28T02:07:04.390Z,7.06
2022-09-28T02:08:04.309Z,7.06
2022-09-28T02:09:04.393Z,7.06
2022-09-28T02:10:04.458Z,7.06
2022-09-28T02:11:04.382Z,7.12
2022-09-28T02:12:03.502Z,7.06
2022-09-28T02:13:03.596Z,7.12
2022-09-28T02:14:03.750Z,7.12
2022-09-28T02:15:03.755Z,7.12
2022-09-28T02:16:03.876Z,7.06
2022-09-28T02:17:03.839Z,7.12
2022-09-28T02:18:03.825Z,7.12
2022-09-28T02:19:03.909Z,7.12
2022-09-28T02:20:04.008Z,7.12
2022-09-28T02:21:04.024Z,7.12
2022-09-28T02:22:04.058Z,7.12
2022-09-28T02:23:04.262Z,7.12
2022-09-28T02:24:04.324Z,7.12
2022-09-28T02:25:04.313Z,7.19
2022-09-28T02:26:04.387Z,7.19
2022-09-28T02:27:03.495Z,7.19
2022-09-28T02:28:03.590Z,7.19
2022-09-28T02:29:04.058Z,7.19
2022-09-28T02:30:04.222Z,7.19
2022-09-28T02:31:04.290Z,7.19
2022-09-28T02:32:04.222Z,7.19
2022-09-28T02:33:04.215Z,7.19
2022-09-28T02:34:04.318Z,7.19
2022-09-28T02:35:04.407Z,7.19
2022-09-28T02:36:04.385Z,7.19
2022-09-28T02:37:04.475Z,7.25
2022-09-28T02:38:04.392Z,7.25
2022-09-28T02:39:04.301Z,7.25
2022-09-28T02:40:03.916Z,7.25
2022-09-28T02:41:04.150Z,7.31
2022-09-28T02:42:04.153Z,7.31
2022-09-28T02:43:04.228Z,7.31
2022-09-28T02:44:04.218Z,7.31
2022-09-28T02:45:04.298Z,7.31
2022-09-28T02:46:04.451Z,7.31
2022-09-28T02:47:04.374Z,7.31
2022-09-28T02:48:04.431Z,7.31
2022-09-28T02:49:20.703Z,7.31
2022-09-28T02:50:03.586Z,7.31
2022-09-28T02:51:03.745Z,7.31
2022-09-28T02:52:03.747Z,7.31
2022-09-28T02:53:03.832Z,7.38
2022-09-28T02:54:03.903Z,7.38
2022-09-28T02:55:04.090Z,7.38
2022-09-28T02:56:04.152Z,7.38
2022-09-28T02:57:04.147Z,7.38
2022-09-28T02:58:04.229Z,7.38
2022-09-28T02:59:04.225Z,7.38
2022-09-28T03:00:04.222Z,7.38
2022-09-28T03:01:04.514Z,7.38
2022-09-28T03:02:04.604Z,7.38
2022-09-28T03:03:03.522Z,7.38
2022-09-28T03:04:03.502Z,7.44
2022-09-28T03:05:04.475Z,7.44
2022-09-28T03:06:03.423Z,7.38
2022-09-28T03:07:03.521Z,7.44
2022-09-28T03:08:03.671Z,7.44
2022-09-28T03:09:03.741Z,7.44
2022-09-28T03:10:03.754Z,7.44
2022-09-28T03:11:03.755Z,7.44
2022-09-28T03:12:03.745Z,7.44
2022-09-28T03:13:03.820Z,7.50
2022-09-28T03:14:03.979Z,7.50
2022-09-28T03:15:03.984Z,7.50
2022-09-28T03:16:04.270Z,7.50
2022-09-28T03:17:04.238Z,7.50
2022-09-28T03:18:04.314Z,7.50
2022-09-28T03:19:04.259Z,7.50
2022-09-28T03:20:04.322Z,7.50
2022-09-28T03:21:04.308Z,7.50
2022-09-28T03:22:04.398Z,7.56
2022-09-28T03:23:23.660Z,7.50
2022-09-28T03:24:04.382Z,7.56
2022-09-28T03:25:03.424Z,7.50
2022-09-28T03:26:03.519Z,7.56
2022-09-28T03:27:03.497Z,7.56
2022-09-28T03:28:04.306Z,7.56
2022-09-28T03:29:04.316Z,7.56
2022-09-28T03:30:04.321Z,7.56
2022-09-28T03:31:04.406Z,7.56
2022-09-28T03:32:04.305Z,7.56
2022-09-28T03:33:03.821Z,7.56
2022-09-28T03:34:03.831Z,7.56
2022-09-28T03:35:03.988Z,7.62
2022-09-28T03:36:04.087Z,7.62
2022-09-28T03:37:04.057Z,7.62
2022-09-28T03:38:04.149Z,7.62
2022-09-28T03:39:04.226Z,7.62
2022-09-28T03:40:04.232Z,7.62
2022-09-28T03:41:08.582Z,7.69
2022-09-28T03:42:04.417Z,7.69
2022-09-28T03:43:04.397Z,7.69
2022-09-28T03:44:04.388Z,7.69
2022-09-28T03:45:03.429Z,7.75
2022-09-28T03:46:03.557Z,7.81
2022-09-28T03:47:03.663Z,7.81
2022-09-28T03:48:03.824Z,7.81
2022-09-28T03:49:03.738Z,7.81
2022-09-28T03:50:03.823Z,7.81
2022-09-28T03:51:03.832Z,7.81
2022-09-28T03:52:03.908Z,7.81
2022-09-28T03:53:03.900Z,7.88
2022-09-28T03:54:03.988Z,7.88
2022-09-28T03:55:04.140Z,7.88
2022-09-28T03:56:04.217Z,7.88
2022-09-28T03:57:04.295Z,7.88
2022-09-28T03:58:04.390Z,7.88
2022-09-28T03:59:04.390Z,7.94
2022-09-28T04:00:03.513Z,7.94
2022-09-28T04:01:03.580Z,7.94
2022-09-28T04:02:03.717Z,7.94
2022-09-28T04:03:03.589Z,7.94
2022-09-28T04:04:03.987Z,8.00
2022-09-28T04:05:04.146Z,7.94
2022-09-28T04:06:04.224Z,7.94
2022-09-28T04:07:04.304Z,8.00
2022-09-28T04:08:04.314Z,7.94
2022-09-28T04:09:04.383Z,7.94
2022-09-28T04:10:04.388Z,7.94
2022-09-28T04:11:04.469Z,7.94
2022-09-28T04:12:04.711Z,7.94
2022-09-28T04:13:04.381Z,7.94
2022-09-28T04:14:04.393Z,7.94
2022-09-28T04:15:03.508Z,7.94
2022-09-28T04:16:03.722Z,7.94
2022-09-28T04:17:03.588Z,8.00
2022-09-28T04:18:03.902Z,8.00
2022-09-28T04:19:03.921Z,8.00
2022-09-28T04:20:04.912Z,8.00
2022-09-28T04:21:03.978Z,7.94
2022-09-28T04:22:04.083Z,8.00
2022-09-28T04:23:04.072Z,8.00
2022-09-28T04:24:04.152Z,8.00
2022-09-28T04:25:04.421Z,8.00
2022-09-28T04:26:04.388Z,8.00
2022-09-28T04:27:03.500Z,8.00
2022-09-28T04:28:03.581Z,8.00
2022-09-28T04:29:06.496Z,8.00
2022-09-28T04:30:03.671Z,8.00
2022-09-28T04:31:03.745Z,8.06
2022-09-28T04:32:03.728Z,8.06
2022-09-28T04:33:03.661Z,8.00
2022-09-28T04:34:03.663Z,8.00
2022-09-28T04:35:04.142Z,8.00
2022-09-28T04:36:04.225Z,8.00
2022-09-28T04:37:04.252Z,8.06
2022-09-28T04:38:04.228Z,8.06
2022-09-28T04:39:04.223Z,8.06
2022-09-28T04:40:04.142Z,8.06
2022-09-28T04:41:04.307Z,8.06
2022-09-28T04:42:03.509Z,8.06
2022-09-28T04:43:03.521Z,8.06
2022-09-28T04:44:03.514Z,8.06
2022-09-28T04:45:03.507Z,8.12
2022-09-28T04:46:03.796Z,8.12
2022-09-28T04:47:05.237Z,8.19
2022-09-28T04:48:03.668Z,8.12
2022-09-28T04:49:03.738Z,8.12
2022-09-28T04:50:03.669Z,8.12
2022-09-28T04:51:03.668Z,8.12
2022-09-28T04:52:03.659Z,8.12
2022-09-28T04:53:03.743Z,8.12
2022-09-28T04:54:03.827Z,8.12
2022-09-28T04:55:03.910Z,8.12
2022-09-28T04:56:03.989Z,8.12
2022-09-28T04:57:04.061Z,8.12
2022-09-28T04:58:04.157Z,8.12
2022-09-28T04:59:04.067Z,8.12
2022-09-28T05:00:04.157Z,8.12
2022-09-28T05:01:04.398Z,8.12
2022-09-28T05:02:04.310Z,8.12
2022-09-28T05:03:04.385Z,8.12
2022-09-28T05:04:04.318Z,8.12
2022-09-28T05:05:04.229Z,8.19
2022-09-28T05:06:04.376Z,8.19
2022-09-28T05:07:04.491Z,8.19
2022-09-28T05:08:04.380Z,8.12
2022-09-28T05:09:04.493Z,8.19
2022-09-28T05:10:03.511Z,8.19
2022-09-28T05:11:03.592Z,8.19
2022-09-28T05:12:03.742Z,8.19
2022-09-28T05:13:03.823Z,8.19
2022-09-28T05:14:03.897Z,8.19
2022-09-28T05:15:03.988Z,8.19
2022-09-28T05:16:05.518Z,8.19
2022-09-28T05:17:04.071Z,8.19
2022-09-28T05:18:03.984Z,8.19
2022-09-28T05:19:04.163Z,8.19
2022-09-28T05:20:04.066Z,8.19
2022-09-28T05:21:04.226Z,8.19
2022-09-28T05:22:04.321Z,8.19
2022-09-28T05:23:04.391Z,8.19
2022-09-28T05:24:04.419Z,8.25
2022-09-28T05:25:04.300Z,8.25
2022-09-28T05:26:04.478Z,8.25
2022-09-28T05:27:03.509Z,8.25
2022-09-28T05:28:03.510Z,8.25
2022-09-28T05:29:03.516Z,8.25
2022-09-28T05:30:03.508Z,8.25
2022-09-28T05:31:03.591Z,8.25
2022-09-28T05:32:03.657Z,8.31
2022-09-28T05:33:03.683Z,8.31
2022-09-28T05:34:03.774Z,8.25
2022-09-28T05:35:03.770Z,8.25
2022-09-28T05:36:03.666Z,8.25
2022-09-28T05:37:03.841Z,8.25
2022-09-28T05:38:03.831Z,8.25
2022-09-28T05:39:03.839Z,8.25
2022-09-28T05:40:03.911Z,8.25
2022-09-28T05:41:06.525Z,8.25
2022-09-28T05:42:03.834Z,8.25
2022-09-28T05:43:04.070Z,8.31
2022-09-28T05:44:03.984Z,8.31
2022-09-28T05:45:04.146Z,8.31
2022-09-28T05:46:04.227Z,8.31
2022-09-28T05:47:04.233Z,8.31
2022-09-28T05:48:04.310Z,8.31
2022-09-28T05:49:04.472Z,8.31
2022-09-28T05:50:03.589Z,8.31
2022-09-28T05:51:03.510Z,8.31
2022-09-28T05:52:03.582Z,8.31
2022-09-28T05:53:03.657Z,8.31
2022-09-28T05:54:06.091Z,8.38
2022-09-28T05:55:03.765Z,8.38
2022-09-28T05:56:03.916Z,8.38
2022-09-28T05:57:03.826Z,8.38
2022-09-28T05:58:03.754Z,8.38
2022-09-28T05:59:03.906Z,8.38
2022-09-28T06:00:03.870Z,8.38
2022-09-28T06:01:03.939Z,8.38
2022-09-28T06:02:04.007Z,8.38
2022-09-28T06:03:08.011Z,8.44
2022-09-28T06:04:03.912Z,8.44
2022-09-28T06:05:03.915Z,8.38
2022-09-28T06:06:03.909Z,8.38
2022-09-28T06:07:03.904Z,8.38
2022-09-28T06:08:03.932Z,8.38
2022-09-28T06:09:04.002Z,8.38
2022-09-28T06:10:03.991Z,8.38
2022-09-28T06:11:04.079Z,8.38
2022-09-28T06:12:04.167Z,8.38
2022-09-28T06:13:04.231Z,8.38
2022-09-28T06:14:04.145Z,8.38
2022-09-28T06:15:04.146Z,8.38
2022-09-28T06:16:04.394Z,8.38
2022-09-28T06:17:04.339Z,8.38
2022-09-28T06:18:03.520Z,8.38
2022-09-28T06:19:03.505Z,8.38
2022-09-28T06:20:03.588Z,8.38
2022-09-28T06:21:03.663Z,8.38
2022-09-28T06:22:03.581Z,8.38
2022-09-28T06:23:03.591Z,8.38
2022-09-28T06:24:03.824Z,8.44
2022-09-28T06:25:03.830Z,8.44
2022-09-28T06:26:03.826Z,8.44
2022-09-28T06:27:03.822Z,8.44
2022-09-28T06:28:03.588Z,8.44
2022-09-28T06:29:03.595Z,8.44
2022-09-28T06:30:03.907Z,8.50
2022-09-28T06:31:04.150Z,8.50
2022-09-28T06:32:04.225Z,8.50
2022-09-28T06:33:04.138Z,8.50
2022-09-28T06:34:04.301Z,8.56
2022-09-28T06:35:04.557Z,8.56
2022-09-28T06:36:03.590Z,8.56
2022-09-28T06:37:03.675Z,8.56
2022-09-28T06:38:03.664Z,8.56
2022-09-28T06:39:03.752Z,8.62
2022-09-28T06:40:03.826Z,8.69
2022-09-28T06:41:03.893Z,8.69
2022-09-28T06:42:03.877Z,8.69
2022-09-28T06:43:03.667Z,8.69
2022-09-28T06:44:03.914Z,8.69
2022-09-28T06:45:03.995Z,8.69
2022-09-28T06:46:03.971Z,8.69
2022-09-28T06:47:03.824Z,8.69
2022-09-28T06:48:03.752Z,8.69
2022-09-28T06:49:03.828Z,8.69
2022-09-28T06:50:03.743Z,8.75
2022-09-28T06:51:03.745Z,8.75
2022-09-28T06:52:03.768Z,8.75
2022-09-28T06:53:03.748Z,8.75
2022-09-28T06:54:03.823Z,8.75
2022-09-28T06:55:03.749Z,8.75
2022-09-28T06:56:03.822Z,8.75
2022-09-28T06:57:04.020Z,8.75
2022-09-28T06:58:04.133Z,8.81
2022-09-28T06:59:04.223Z,8.81
2022-09-28T07:00:04.320Z,8.81
2022-09-28T07:01:04.469Z,8.81
2022-09-28T07:02:04.443Z,8.81
2022-09-28T07:03:03.430Z,8.88
2022-09-28T07:04:03.588Z,8.88
2022-09-28T07:05:03.669Z,8.88
2022-09-28T07:06:03.746Z,8.88
2022-09-28T07:07:03.817Z,8.88
2022-09-28T07:08:03.908Z,8.88
2022-09-28T07:09:12.673Z,8.94
2022-09-28T07:10:03.828Z,8.88
2022-09-28T07:11:03.827Z,8.94
2022-09-28T07:12:03.907Z,8.94
2022-09-28T07:13:03.914Z,8.94
2022-09-28T07:14:03.904Z,8.88
2022-09-28T07:15:03.902Z,8.94
2022-09-28T07:16:03.901Z,8.94
2022-09-28T07:17:12.119Z,8.94
2022-09-28T07:18:04.300Z,8.94
2022-09-28T07:19:04.070Z,8.94
2022-09-28T07:20:14.017Z,8.94
2022-09-28T07:21:04.239Z,9.00
2022-09-28T07:22:05.334Z,8.94
2022-09-28T07:23:13.659Z,9.00
2022-09-28T07:24:03.600Z,9.00
2022-09-28T07:25:03.517Z,9.00
2022-09-28T07:26:04.327Z,9.00
2022-09-28T07:27:03.762Z,9.00
2022-09-28T07:28:03.673Z,9.00
2022-09-28T07:29:03.523Z,9.00
2022-09-28T07:30:04.382Z,9.00
2022-09-28T07:31:04.175Z,9.06
2022-09-28T07:32:03.992Z,9.06
2022-09-28T07:33:03.999Z,9.06
2022-09-28T07:34:04.035Z,9.12
2022-09-28T07:35:04.010Z,9.12
2022-09-28T07:36:04.162Z,9.12
2022-09-28T07:37:04.335Z,9.12
2022-09-28T07:38:04.325Z,9.12
2022-09-28T07:39:04.388Z,9.19
2022-09-28T07:40:04.316Z,9.19
2022-09-28T07:41:03.525Z,9.19
2022-09-28T07:42:03.519Z,9.19
2022-09-28T07:43:03.499Z,9.25
2022-09-28T07:44:03.584Z,9.25
2022-09-28T07:45:03.668Z,9.25
2022-09-28T07:46:03.700Z,9.25
2022-09-28T07:47:03.579Z,9.25
2022-09-28T07:48:03.695Z,9.31
2022-09-28T07:49:04.817Z,9.31
2022-09-28T07:50:03.671Z,9.31
2022-09-28T07:51:03.751Z,9.31
2022-09-28T07:52:03.841Z,9.38
2022-09-28T07:53:03.830Z,9.38
2022-09-28T07:54:03.982Z,9.38
2022-09-28T07:55:06.972Z,9.38
2022-09-28T07:56:04.075Z,9.44
2022-09-28T07:57:04.066Z,9.44
2022-09-28T07:58:04.237Z,9.44
2022-09-28T07:59:04.392Z,9.44
2022-09-28T08:00:04.532Z,9.50
2022-09-28T08:01:04.505Z,9.50
2022-09-28T08:02:04.533Z,9.50
2022-09-28T08:03:03.426Z,9.56
2022-09-28T08:04:03.590Z,9.56
2022-09-28T08:05:03.517Z,9.56
2022-09-28T08:06:03.605Z,9.62
2022-09-28T08:07:03.744Z,9.62
2022-09-28T08:08:03.743Z,9.69
2022-09-28T08:09:03.757Z,9.69
2022-09-28T08:10:03.736Z,9.75
2022-09-28T08:11:03.827Z,9.81
2022-09-28T08:12:03.825Z,9.81
2022-09-28T08:13:05.488Z,9.88
2022-09-28T08:14:03.784Z,9.94
2022-09-28T08:15:03.831Z,9.94
2022-09-28T08:16:03.998Z,10.00
2022-09-28T08:17:04.073Z,10.06
2022-09-28T08:18:04.071Z,10.12
2022-09-28T08:19:04.065Z,10.19
2022-09-28T08:20:04.078Z,10.25
2022-09-28T08:21:04.074Z,10.25
2022-09-28T08:22:04.067Z,10.31
2022-09-28T08:23:04.073Z,10.38
2022-09-28T08:24:04.044Z,10.44
2022-09-28T08:25:03.905Z,10.50
2022-09-28T08:26:03.912Z,10.56
2022-09-28T08:27:03.819Z,10.62
2022-09-28T08:28:03.828Z,10.62
2022-09-28T08:29:04.003Z,10.62
2022-09-28T08:30:03.904Z,10.75
2022-09-28T08:31:04.068Z,10.81
2022-09-28T08:32:03.902Z,10.88
2022-09-28T08:33:04.074Z,10.88
2022-09-28T08:34:04.159Z,10.94
2022-09-28T08:35:04.153Z,11.00
2022-09-28T08:36:04.241Z,11.00
2022-09-28T08:37:04.306Z,11.06
2022-09-28T08:38:04.386Z,11.12
2022-09-28T08:39:04.411Z,11.19
2022-09-28T08:40:04.470Z,11.19
2022-09-28T08:41:04.491Z,11.25
2022-09-28T08:42:04.468Z,11.25
2022-09-28T08:43:04.483Z,11.31
2022-09-28T08:44:04.471Z,11.38
2022-09-28T08:45:04.479Z,11.38
2022-09-28T08:46:04.469Z,11.38
2022-09-28T08:47:03.599Z,11.44
2022-09-28T08:48:03.600Z,11.50
2022-09-28T08:49:24.036Z,11.50
2022-09-28T08:50:03.593Z,11.50
2022-09-28T08:51:03.599Z,11.50
2022-09-28T08:52:03.759Z,11.50
2022-09-28T08:53:03.908Z,11.56
2022-09-28T08:54:04.858Z,11.56
2022-09-28T08:55:03.834Z,11.56
2022-09-28T08:56:03.992Z,11.56
2022-09-28T08:57:04.149Z,11.56
2022-09-28T08:58:04.143Z,11.62
2022-09-28T08:59:04.255Z,11.62
2022-09-28T09:00:07.099Z,11.62
2022-09-28T09:01:04.345Z,11.62
2022-09-28T09:02:04.265Z,11.69
2022-09-28T09:03:04.380Z,11.69
2022-09-28T09:04:04.480Z,11.69
2022-09-28T09:05:03.591Z,11.75
2022-09-28T09:06:03.675Z,11.75
2022-09-28T09:07:03.747Z,11.75
2022-09-28T09:08:03.933Z,11.81
2022-09-28T09:09:03.907Z,11.81
2022-09-28T09:10:03.988Z,11.88
2022-09-28T09:11:04.069Z,11.88
2022-09-28T09:12:04.153Z,11.88
2022-09-28T09:13:04.223Z,11.94
2022-09-28T09:14:04.397Z,11.94
2022-09-28T09:15:03.513Z,12.00
2022-09-28T09:16:03.750Z,12.06
2022-09-28T09:17:03.870Z,12.06
2022-09-28T09:18:03.841Z,12.12
2022-09-28T09:19:03.745Z,12.12
2022-09-28T09:20:03.747Z,12.19
2022-09-28T09:21:03.752Z,12.19
2022-09-28T09:22:03.742Z,12.25
2022-09-28T09:23:03.740Z,12.25
2022-09-28T09:24:03.746Z,12.25
2022-09-28T09:25:03.737Z,12.31
2022-09-28T09:26:03.760Z,12.38
2022-09-28T09:27:03.849Z,12.44
2022-09-28T09:28:03.821Z,12.44
2022-09-28T09:29:03.917Z,12.44
2022-09-28T09:30:03.930Z,12.50
2022-09-28T09:31:03.958Z,12.50
2022-09-28T09:32:03.825Z,12.50
2022-09-28T09:33:04.015Z,12.56
2022-09-28T09:34:03.897Z,12.56
2022-09-28T09:35:03.906Z,12.56
2022-09-28T09:36:03.904Z,12.56
2022-09-28T09:37:04.002Z,12.56
2022-09-28T09:38:03.670Z,12.56
2022-09-28T09:39:03.744Z,12.50
2022-09-28T09:40:04.039Z,12.56
2022-09-28T09:41:04.052Z,12.56
2022-09-28T09:42:03.902Z,12.56
2022-09-28T09:43:03.914Z,12.62
2022-09-28T09:44:03.823Z,12.62
2022-09-28T09:45:03.996Z,12.62
2022-09-28T09:46:04.129Z,12.56
2022-09-28T09:47:03.988Z,12.56
2022-09-28T09:48:03.990Z,12.56
2022-09-28T09:49:03.688Z,12.56
2022-09-28T09:50:05.283Z,12.56
2022-09-28T09:51:03.691Z,12.50
2022-09-28T09:52:03.902Z,12.50
2022-09-28T09:53:04.090Z,12.50
2022-09-28T09:54:03.982Z,12.50
2022-09-28T09:55:03.988Z,12.50
2022-09-28T09:56:04.061Z,12.44
2022-09-28T09:57:04.251Z,12.44
2022-09-28T09:58:04.310Z,12.44
2022-09-28T09:59:04.304Z,12.44
2022-09-28T10:00:04.387Z,12.44
2022-09-28T10:01:03.635Z,12.44
2022-09-28T10:02:04.054Z,12.38
2022-09-28T10:03:04.319Z,12.38
2022-09-28T10:04:04.321Z,12.38
2022-09-28T10:05:04.392Z,12.31
2022-09-28T10:06:04.462Z,12.25
2022-09-28T10:07:03.681Z,12.25
2022-09-28T10:08:03.594Z,12.25
2022-09-28T10:09:03.674Z,12.19
2022-09-28T10:10:03.608Z,12.19
2022-09-28T10:11:03.772Z,12.19
2022-09-28T10:12:03.664Z,12.19
2022-09-28T10:13:03.837Z,12.19
2022-09-28T10:14:03.739Z,12.19
2022-09-28T10:15:04.011Z,12.19
2022-09-28T10:16:04.139Z,12.25
2022-09-28T10:17:04.601Z,12.31
2022-09-28T10:18:03.529Z,12.31
2022-09-28T10:19:04.007Z,12.38
2022-09-28T10:20:04.059Z,12.38
2022-09-28T10:21:04.146Z,12.44
2022-09-28T10:22:04.064Z,12.44
2022-09-28T10:23:03.541Z,12.50
2022-09-28T10:24:03.532Z,12.50
2022-09-28T10:25:03.666Z,12.56
2022-09-28T10:26:03.599Z,12.56
2022-09-28T10:27:03.600Z,12.56
2022-09-28T10:28:04.489Z,12.62
2022-09-28T10:29:03.516Z,12.62
2022-09-28T10:30:03.665Z,12.69
2022-09-28T10:31:03.851Z,12.75
2022-09-28T10:32:04.313Z,12.75
2022-09-28T10:33:04.316Z,12.81
2022-09-28T10:34:04.306Z,12.81
2022-09-28T10:35:04.416Z,12.88
2022-09-28T10:36:04.381Z,12.94
2022-09-28T10:37:04.465Z,12.94
2022-09-28T10:38:03.583Z,13.00
2022-09-28T10:39:03.667Z,13.00
2022-09-28T10:40:03.596Z,13.00
2022-09-28T10:41:03.753Z,13.00
2022-09-28T10:42:03.680Z,13.00
2022-09-28T10:43:03.757Z,13.00
2022-09-28T10:44:03.669Z,13.00
2022-09-28T10:45:03.906Z,13.00
2022-09-28T10:46:04.139Z,13.00
2022-09-28T10:47:04.186Z,12.94
2022-09-28T10:48:04.243Z,12.88
2022-09-28T10:49:04.229Z,12.88
2022-09-28T10:50:04.146Z,12.81
2022-09-28T10:51:04.172Z,12.75
2022-09-28T10:52:04.153Z,12.75
2022-09-28T10:53:04.143Z,12.69
2022-09-28T10:54:04.151Z,12.69
2022-09-28T10:55:04.232Z,12.62
2022-09-28T10:56:04.381Z,12.62
2022-09-28T10:57:03.462Z,12.62
2022-09-28T10:58:03.596Z,12.62
2022-09-28T10:59:03.506Z,12.56
2022-09-28T11:00:03.679Z,12.56
2022-09-28T11:01:03.613Z,12.62
2022-09-28T11:02:03.730Z,12.62
2022-09-28T11:03:03.663Z,12.62
2022-09-28T11:04:03.672Z,12.62
2022-09-28T11:05:03.583Z,12.62
2022-09-28T11:06:03.675Z,12.62
2022-09-28T11:07:03.822Z,12.62
2022-09-28T11:08:03.669Z,12.62
2022-09-28T11:09:03.662Z,12.62
2022-09-28T11:10:03.755Z,12.62
2022-09-28T11:11:03.746Z,12.56
2022-09-28T11:12:03.828Z,12.56
2022-09-28T11:13:03.749Z,12.56
2022-09-28T11:14:03.991Z,12.62
2022-09-28T11:15:03.913Z,12.62
2022-09-28T11:16:03.919Z,12.62
2022-09-28T11:17:04.075Z,12.62
2022-09-28T11:18:04.149Z,12.69
2022-09-28T11:19:04.137Z,12.69
2022-09-28T11:20:04.233Z,12.69
2022-09-28T11:21:04.325Z,12.69
2022-09-28T11:22:04.411Z,12.69
2022-09-28T11:23:04.299Z,12.75
2022-09-28T11:24:04.312Z,12.75
2022-09-28T11:25:04.307Z,12.81
2022-09-28T11:26:04.309Z,12.81
2022-09-28T11:27:04.292Z,12.81
2022-09-28T11:28:04.594Z,12.88
2022-09-28T11:29:04.409Z,12.88
2022-09-28T11:30:04.472Z,12.94
2022-09-28T11:31:03.540Z,12.94
2022-09-28T11:32:03.504Z,13.00
2022-09-28T11:33:03.594Z,13.06
2022-09-28T11:34:03.510Z,13.12
2022-09-28T11:35:03.621Z,13.12
2022-09-28T11:36:03.600Z,13.19
2022-09-28T11:37:03.591Z,13.19
2022-09-28T11:38:04.475Z,13.25
2022-09-28T11:39:03.513Z,13.31
2022-09-28T11:40:03.507Z,13.38
2022-09-28T11:41:03.671Z,13.44
2022-09-28T11:42:03.851Z,13.44
2022-09-28T11:43:03.838Z,13.50
2022-09-28T11:44:03.928Z,13.50
2022-09-28T11:45:03.989Z,13.56
2022-09-28T11:46:04.156Z,13.56
2022-09-28T11:47:04.023Z,13.62
2022-09-28T11:48:04.150Z,13.69
2022-09-28T11:49:04.070Z,13.75
2022-09-28T11:50:03.985Z,13.75
2022-09-28T11:51:04.146Z,13.75
2022-09-28T11:52:04.226Z,13.75
2022-09-28T11:53:04.233Z,13.75
2022-09-28T11:54:04.143Z,13.75
2022-09-28T11:55:04.197Z,13.75
2022-09-28T11:56:07.999Z,13.69
2022-09-28T11:57:04.148Z,13.69
2022-09-28T11:58:04.307Z,13.62
2022-09-28T11:59:04.223Z,13.62
2022-09-28T12:00:04.459Z,13.56
2022-09-28T12:01:03.503Z,13.56
2022-09-28T12:02:03.634Z,13.56
2022-09-28T12:03:03.627Z,13.56
2022-09-28T12:04:03.588Z,13.56
2022-09-28T12:05:03.504Z,13.62
2022-09-28T12:06:03.753Z,13.69
2022-09-28T12:07:03.745Z,13.69
2022-09-28T12:08:03.658Z,13.75
2022-09-28T12:09:03.842Z,13.75
2022-09-28T12:10:03.750Z,13.81
2022-09-28T12:11:03.669Z,13.81
2022-09-28T12:12:03.757Z,13.81
2022-09-28T12:13:03.829Z,13.81
2022-09-28T12:14:03.831Z,13.81
2022-09-28T12:15:04.221Z,13.88
2022-09-28T12:16:38.712Z,13.88
2022-09-28T12:17:07.079Z,13.94
2022-09-28T12:18:03.884Z,13.94
2022-09-28T12:19:03.832Z,14.00
2022-09-28T12:20:03.848Z,14.00
2022-09-28T12:21:04.974Z,14.00
2022-09-28T12:22:04.143Z,14.06
2022-09-28T12:23:04.142Z,14.06
2022-09-28T12:24:04.225Z,14.06
2022-09-28T12:25:04.310Z,14.06
2022-09-28T12:26:04.395Z,14.06
2022-09-28T12:27:04.480Z,14.06
2022-09-28T12:28:03.427Z,14.12
2022-09-28T12:29:04.478Z,14.12
2022-09-28T12:30:03.610Z,14.12
2022-09-28T12:31:03.683Z,14.12
2022-09-28T12:32:03.581Z,14.12
2022-09-28T12:33:03.587Z,14.19
2022-09-28T12:34:03.662Z,14.19
2022-09-28T12:35:03.508Z,14.19
2022-09-28T12:36:03.667Z,14.25
2022-09-28T12:37:03.662Z,14.25
2022-09-28T12:38:03.662Z,14.25
2022-09-28T12:39:17.964Z,14.31
2022-09-28T12:40:04.161Z,14.31
2022-09-28T12:41:03.922Z,14.31
2022-09-28T12:42:03.914Z,14.25
2022-09-28T12:43:03.914Z,14.25
2022-09-28T12:44:03.858Z,14.25
2022-09-28T12:45:03.907Z,14.25
2022-09-28T12:46:12.220Z,14.25
2022-09-28T12:47:04.066Z,14.25
2022-09-28T12:48:03.988Z,14.19
2022-09-28T12:49:47.548Z,14.19
2022-09-28T12:50:38.399Z,14.19
2022-09-28T12:51:03.514Z,14.12
2022-09-28T12:52:03.585Z,14.12
2022-09-28T12:53:03.713Z,14.06
2022-09-28T12:54:03.666Z,14.06
2022-09-28T12:55:03.722Z,14.00
2022-09-28T12:56:03.685Z,14.00
2022-09-28T12:57:03.825Z,13.94
2022-09-28T12:58:03.922Z,13.94
2022-09-28T12:59:03.910Z,14.00
2022-09-28T13:00:03.907Z,13.94
2022-09-28T13:01:04.112Z,13.94
2022-09-28T13:02:04.200Z,13.94
2022-09-28T13:03:04.146Z,13.94
2022-09-28T13:04:04.309Z,13.94
2022-09-28T13:05:03.427Z,14.00
2022-09-28T13:06:03.672Z,13.94
2022-09-28T13:07:03.674Z,14.00
2022-09-28T13:08:03.582Z,14.00